Time;durP1;ratioP1;P1;durP2;ratioP2;P2;SDS_P1;SDS_P2;PMS_P1;PMS_P2;Temp;Humidity;BMP_temperature;BMP_pressure;BME280_temperature;BME280_humidity;BME280_pressure;Samples;Min_cycle;Max_cycle;Signal;HPM_P1;HPM_P2
2023/09/04 00:01:22;;;;;;;;;11.00;8.33;;;;;-146.67;100.00;57155.34;5101133;28;8853;-80
2023/09/04 00:03:47;;;;;;;;;11.00;10.00;;;;;-146.67;100.00;57155.34;5101099;28;9581;-80
2023/09/04 00:06:13;;;;;;;;;12.33;12.00;;;;;-146.67;100.00;57155.34;5100977;28;8914;-80
2023/09/04 00:08:38;;;;;;;;;9.67;9.00;;;;;-146.67;100.00;57155.34;5111904;28;8888;-80
2023/09/04 00:11:03;;;;;;;;;11.33;10.33;;;;;-146.67;100.00;57155.34;5084895;28;10153;-79
2023/09/04 00:13:29;;;;;;;;;14.67;11.00;;;;;-146.67;100.00;57155.34;5103082;28;8813;-79
2023/09/04 00:15:56;;;;;;;;;9.33;8.67;;;;;-146.67;100.00;57155.34;5103473;28;8861;-80
2023/09/04 00:18:22;;;;;;;;;10.00;10.00;;;;;-146.67;100.00;57155.34;5102117;28;8963;-80
2023/09/04 00:20:48;;;;;;;;;11.00;11.00;;;;;-146.67;100.00;57155.34;5101277;28;9517;-79
2023/09/04 00:23:14;;;;;;;;;11.25;11.00;;;;;-146.67;100.00;57155.34;5101337;28;11423;-79
2023/09/04 00:25:39;;;;;;;;;13.33;13.33;;;;;-146.67;100.00;57155.34;5103382;28;8864;-80
2023/09/04 00:28:05;;;;;;;;;13.67;10.33;;;;;-146.67;100.00;57155.34;5111311;28;8761;-80
2023/09/04 00:30:30;;;;;;;;;17.33;10.00;;;;;-146.67;100.00;57155.34;5122349;28;9938;-80
2023/09/04 00:32:56;;;;;;;;;12.50;11.00;;;;;-146.67;100.00;57155.34;5106324;28;8901;-79
2023/09/04 00:35:22;;;;;;;;;13.75;12.50;;;;;-146.67;100.00;57155.34;5108538;28;8793;-79
2023/09/04 00:37:48;;;;;;;;;12.00;12.00;;;;;-146.67;100.00;57155.34;5101079;28;8788;-80
2023/09/04 00:40:13;;;;;;;;;12.67;10.67;;;;;-146.67;100.00;57155.34;5102540;28;9531;-78
2023/09/04 00:42:39;;;;;;;;;13.00;11.00;;;;;-146.67;100.00;57155.34;5121823;28;9407;-79
2023/09/04 00:45:06;;;;;;;;;11.67;10.00;;;;;-146.67;100.00;57155.34;5084268;28;8828;-80
2023/09/04 00:47:32;;;;;;;;;10.33;9.00;;;;;-146.67;100.00;57155.34;5084004;28;8806;-80
2023/09/04 00:49:58;;;;;;;;;10.33;10.33;;;;;-146.67;100.00;57155.34;5101485;28;9559;-80
2023/09/04 00:52:25;;;;;;;;;11.33;9.33;;;;;-146.67;100.00;57155.34;5102151;28;8809;-79
2023/09/04 00:54:51;;;;;;;;;10.00;10.00;;;;;-146.67;100.00;57155.34;5118830;28;9212;-80
2023/09/04 00:57:18;;;;;;;;;10.00;10.00;;;;;-146.67;100.00;57155.34;5101204;28;9214;-80
2023/09/04 00:59:45;;;;;;;;;11.33;11.00;;;;;-146.67;100.00;57155.34;5109190;28;9441;-79
2023/09/04 01:02:13;;;;;;;;;15.00;13.33;;;;;-146.67;100.00;57155.34;5121691;28;9148;-80
2023/09/04 01:04:40;;;;;;;;;14.33;13.00;;;;;-146.67;100.00;57155.34;5092072;28;9489;-79
2023/09/04 01:07:06;;;;;;;;;12.33;10.67;;;;;-146.67;100.00;57155.34;5102233;28;9476;-80
2023/09/04 01:09:31;;;;;;;;;11.67;11.67;;;;;-146.67;100.00;57155.34;5093992;28;10321;-80
2023/09/04 01:12:13;;;;;;;;;14.00;12.00;;;;;-146.67;100.00;57155.34;5101093;28;8791;-80
2023/09/04 01:14:45;;;;;;;;;10.50;10.25;;;;;-146.67;100.00;57155.34;5101167;28;8791;-80
2023/09/04 01:17:12;;;;;;;;;13.00;10.75;;;;;-146.67;100.00;57155.34;5102723;28;9547;-79
2023/09/04 01:19:39;;;;;;;;;13.00;10.00;;;;;-146.67;100.00;57155.34;5099571;28;10013;-79
2023/09/04 01:22:08;;;;;;;;;13.00;10.00;;;;;-146.67;100.00;57155.34;5100895;28;9303;-80
2023/09/04 01:24:35;;;;;;;;;12.00;12.00;;;;;-146.67;100.00;57155.34;5083864;28;9344;-79
2023/09/04 01:27:27;;;;;;;;;11.00;11.00;;;;;-146.67;100.00;57155.34;5098931;28;9512;-79
2023/09/04 01:30:20;;;;;;;;;14.25;12.75;;;;;-146.67;100.00;57155.34;5101113;28;10093;-80
2023/09/04 01:32:52;;;;;;;;;14.00;12.75;;;;;-146.67;100.00;57155.34;5101705;28;9528;-78
2023/09/04 01:35:22;;;;;;;;;16.67;11.67;;;;;-146.67;100.00;57155.34;5101040;28;9523;-79
2023/09/04 01:37:47;;;;;;;;;14.00;13.00;;;;;-146.67;100.00;57155.34;5102410;28;9501;-80
2023/09/04 01:40:13;;;;;;;;;12.00;10.33;;;;;-146.67;100.00;57155.34;5100586;28;10078;-79
2023/09/04 01:42:38;;;;;;;;;11.33;10.00;;;;;-146.67;100.00;57155.34;5117840;28;8897;-79
2023/09/04 01:45:04;;;;;;;;;12.00;9.67;;;;;-146.67;100.00;57155.34;5100951;28;8807;-80
2023/09/04 01:47:30;;;;;;;;;12.33;10.00;;;;;-146.67;100.00;57155.34;5100710;28;8731;-79
2023/09/04 01:49:56;;;;;;;;;12.33;10.33;;;;;-146.67;100.00;57155.34;5119326;28;9904;-79
2023/09/04 01:52:21;;;;;;;;;13.00;11.33;;;;;-146.67;100.00;57155.34;5105483;28;11448;-80
2023/09/04 01:54:47;;;;;;;;;8.67;8.67;;;;;-146.67;100.00;57155.34;5105037;28;8783;-79
2023/09/04 01:57:12;;;;;;;;;10.67;8.33;;;;;-146.67;100.00;57155.34;5105648;28;8799;-79
2023/09/04 01:59:38;;;;;;;;;11.33;8.67;;;;;-146.67;100.00;57155.34;5105239;28;8799;-80
2023/09/04 02:02:03;;;;;;;;;11.00;9.67;;;;;-146.67;100.00;57155.34;5105044;28;8830;-79
2023/09/04 02:04:32;;;;;;;;;7.33;7.33;;;;;-146.67;100.00;57155.34;5103467;28;8799;-79
2023/09/04 02:06:58;;;;;;;;;3.00;3.00;;;;;-146.67;100.00;57155.34;5103991;28;9760;-80
2023/09/04 02:09:24;;;;;;;;;12.00;6.00;;;;;-146.67;100.00;57155.34;5087081;28;10567;-80
2023/09/04 02:11:49;;;;;;;;;9.33;7.33;;;;;-146.67;100.00;57155.34;5086573;28;9459;-80
2023/09/04 02:14:15;;;;;;;;;9.33;8.67;;;;;-146.67;100.00;57155.34;5103985;28;8822;-79
2023/09/04 02:16:40;;;;;;;;;8.00;7.00;;;;;-146.67;100.00;57155.34;5102783;28;8821;-79
2023/09/04 02:19:06;;;;;;;;;10.00;6.67;;;;;-146.67;100.00;57155.34;5103563;28;9964;-80
2023/09/04 02:21:32;;;;;;;;;8.33;7.00;;;;;-146.67;100.00;57155.34;5102089;28;8857;-79
2023/09/04 02:23:58;;;;;;;;;7.00;7.00;;;;;-146.67;100.00;57155.34;5103119;28;8739;-79
2023/09/04 02:26:23;;;;;;;;;8.00;6.00;;;;;-146.67;100.00;57155.34;5104065;28;9183;-80
2023/09/04 02:28:49;;;;;;;;;7.00;7.00;;;;;-146.67;100.00;57155.34;5104648;28;8767;-79
2023/09/04 02:31:14;;;;;;;;;5.67;5.00;;;;;-146.67;100.00;57155.34;5102733;28;8891;-79
2023/09/04 02:33:40;;;;;;;;;7.67;6.00;;;;;-146.67;100.00;57155.34;5103669;28;8798;-79
2023/09/04 02:36:05;;;;;;;;;5.67;5.00;;;;;-146.67;100.00;57155.34;5103827;28;8826;-80
2023/09/04 02:38:30;;;;;;;;;8.00;6.67;;;;;-146.67;100.00;57155.34;5103715;28;8799;-79
2023/09/04 02:40:56;;;;;;;;;9.67;6.00;;;;;-146.67;100.00;57155.34;5104840;28;8803;-79
2023/09/04 02:43:21;;;;;;;;;7.67;5.67;;;;;-146.67;100.00;57155.34;5104952;28;8923;-79
2023/09/04 02:45:47;;;;;;;;;7.33;5.33;;;;;-146.67;100.00;57155.34;5103054;28;8826;-79
2023/09/04 02:48:13;;;;;;;;;7.00;7.00;;;;;-146.67;100.00;57155.34;5103130;28;8832;-80
2023/09/04 02:50:40;;;;;;;;;9.00;8.00;;;;;-146.67;100.00;57155.34;5103992;28;8817;-79
2023/09/04 02:53:05;;;;;;;;;10.67;8.67;;;;;-146.67;100.00;57155.34;5103858;28;8791;-80
2023/09/04 02:55:31;;;;;;;;;11.33;8.67;;;;;-146.67;100.00;57155.34;5104185;28;9503;-80
2023/09/04 02:57:57;;;;;;;;;8.67;6.67;;;;;-146.67;100.00;57155.34;5103522;28;10059;-80
2023/09/04 03:00:22;;;;;;;;;6.75;6.75;;;;;-146.67;100.00;57155.34;5101239;28;8818;-79
2023/09/04 03:02:50;;;;;;;;;7.00;6.67;;;;;-146.67;100.00;57155.34;5103483;28;8821;-80
2023/09/04 03:05:16;;;;;;;;;11.50;8.50;;;;;-146.67;100.00;57155.34;5085692;28;8747;-79
2023/09/04 03:07:42;;;;;;;;;8.25;8.25;;;;;-146.67;100.00;57155.34;5104435;28;9665;-79
2023/09/04 03:10:07;;;;;;;;;8.75;8.25;;;;;-146.67;100.00;57155.34;5102839;28;9567;-79
2023/09/04 03:12:33;;;;;;;;;8.50;8.50;;;;;-146.67;100.00;57155.34;5109795;28;11445;-79
2023/09/04 03:15:01;;;;;;;;;9.33;9.33;;;;;-146.67;100.00;57155.34;5103921;28;9533;-79
2023/09/04 03:17:28;;;;;;;;;12.67;8.67;;;;;-146.67;100.00;57155.34;5102903;28;8789;-79
2023/09/04 03:19:55;;;;;;;;;10.25;8.25;;;;;-146.67;100.00;57155.34;5108668;28;9453;-80
2023/09/04 03:22:21;;;;;;;;;8.75;8.75;;;;;-146.67;100.00;57155.34;5103510;28;9528;-79
2023/09/04 03:24:47;;;;;;;;;12.50;9.75;;;;;-146.67;100.00;57155.34;5102787;28;9472;-79
2023/09/04 03:27:12;;;;;;;;;9.25;9.25;;;;;-146.67;100.00;57155.34;5102645;28;9993;-79
2023/09/04 03:29:38;;;;;;;;;10.75;9.75;;;;;-146.67;100.00;57155.34;5103903;28;8795;-79
2023/09/04 03:32:04;;;;;;;;;11.75;10.00;;;;;-146.67;100.00;57155.34;5102801;28;8795;-80
2023/09/04 03:34:29;;;;;;;;;9.25;7.25;;;;;-146.67;100.00;57155.34;5111072;28;8779;-80
2023/09/04 03:36:55;;;;;;;;;10.00;10.00;;;;;-146.67;100.00;57155.34;5103445;28;9526;-79
2023/09/04 03:39:21;;;;;;;;;8.33;8.00;;;;;-146.67;100.00;57155.34;5103963;28;8775;-79
2023/09/04 03:41:46;;;;;;;;;11.00;8.75;;;;;-146.67;100.00;57155.34;5102388;28;8817;-79
2023/09/04 03:44:12;;;;;;;;;9.67;9.67;;;;;-146.67;100.00;57155.34;5101630;28;9551;-79
2023/09/04 03:46:37;;;;;;;;;11.33;8.67;;;;;-146.67;100.00;57155.34;5085622;28;9908;-79
2023/09/04 03:49:04;;;;;;;;;12.25;10.50;;;;;-146.67;100.00;57155.34;5102410;28;8814;-79
2023/09/04 03:51:29;;;;;;;;;9.75;8.50;;;;;-146.67;100.00;57155.34;5101926;28;8783;-79
2023/09/04 03:53:55;;;;;;;;;13.50;11.25;;;;;-146.67;100.00;57155.34;5103692;28;9654;-80
2023/09/04 03:56:20;;;;;;;;;9.25;8.75;;;;;-146.67;100.00;57155.34;5102874;28;9943;-79
2023/09/04 03:58:45;;;;;;;;;10.75;9.25;;;;;-146.67;100.00;57155.34;5103272;28;8802;-79
2023/09/04 04:01:11;;;;;;;;;9.75;9.75;;;;;-146.67;100.00;57155.34;5085138;28;8819;-80
2023/09/04 04:03:36;;;;;;;;;8.75;8.75;;;;;-146.67;100.00;57155.34;5103157;28;8775;-79
2023/09/04 04:06:12;;;;;;;;;14.25;9.00;;;;;-146.67;100.00;57155.34;5103012;28;8786;-79
2023/09/04 04:08:38;;;;;;;;;11.33;9.00;;;;;-146.67;100.00;57155.34;5068314;28;8762;-79
2023/09/04 04:11:04;;;;;;;;;8.25;8.00;;;;;-146.67;100.00;57155.34;5103422;28;9594;-80
2023/09/04 04:13:29;;;;;;;;;10.00;8.50;;;;;-146.67;100.00;57155.34;5102964;28;8704;-79
2023/09/04 04:15:59;;;;;;;;;6.25;6.25;;;;;-146.67;100.00;57155.34;5102026;28;9822;-79
2023/09/04 04:18:26;;;;;;;;;10.25;8.25;;;;;-146.67;100.00;57155.34;5103045;28;8734;-79
2023/09/04 04:20:52;;;;;;;;;8.75;8.00;;;;;-146.67;100.00;57155.34;5100231;28;9716;-79
2023/09/04 04:23:17;;;;;;;;;7.25;7.25;;;;;-146.67;100.00;57155.34;5101921;28;9637;-79
2023/09/04 04:25:43;;;;;;;;;9.25;9.25;;;;;-146.67;100.00;57155.34;5114810;28;11056;-79
2023/09/04 04:28:08;;;;;;;;;9.00;7.75;;;;;-146.67;100.00;57155.34;5090726;28;8798;-79
2023/09/04 04:30:35;;;;;;;;;13.00;11.00;;;;;-146.67;100.00;57155.34;5101767;28;8787;-79
2023/09/04 04:33:00;;;;;;;;;11.25;10.75;;;;;-146.67;100.00;57155.34;5102138;28;8968;-79
2023/09/04 04:35:26;;;;;;;;;13.25;10.50;;;;;-146.67;100.00;57155.34;5102936;28;10155;-79
2023/09/04 04:37:51;;;;;;;;;10.75;10.75;;;;;-146.67;100.00;57155.34;5102555;28;8886;-79
2023/09/04 04:40:22;;;;;;;;;11.00;10.00;;;;;-146.67;100.00;57155.34;5102490;28;8824;-78
2023/09/04 04:42:47;;;;;;;;;9.75;9.50;;;;;-146.67;100.00;57155.34;5101635;28;8763;-79
2023/09/04 04:45:12;;;;;;;;;12.25;11.50;;;;;-146.67;100.00;57155.34;5103078;28;10154;-79
2023/09/04 04:47:38;;;;;;;;;10.75;10.25;;;;;-146.67;100.00;57155.34;5083879;28;8811;-79
2023/09/04 04:50:04;;;;;;;;;11.00;9.75;;;;;-146.67;100.00;57155.34;5100333;28;8795;-79
2023/09/04 04:52:29;;;;;;;;;8.67;8.67;;;;;-146.67;100.00;57155.34;5102238;28;8810;-79
2023/09/04 04:54:55;;;;;;;;;8.33;8.00;;;;;-146.67;100.00;57155.34;5065092;28;10168;-79
2023/09/04 04:57:20;;;;;;;;;11.50;9.00;;;;;-146.67;100.00;57155.34;5100924;28;8803;-78
2023/09/04 04:59:46;;;;;;;;;12.75;12.50;;;;;-146.67;100.00;57155.34;5112308;28;8780;-79
2023/09/04 05:02:12;;;;;;;;;8.25;8.25;;;;;-146.67;100.00;57155.34;5123352;28;8789;-79
2023/09/04 05:04:44;;;;;;;;;9.75;8.25;;;;;-146.67;100.00;57155.34;5121705;28;8816;-79
2023/09/04 05:07:09;;;;;;;;;10.50;10.50;;;;;-146.67;100.00;57155.34;5097599;28;9652;-79
2023/09/04 05:09:35;;;;;;;;;9.00;8.00;;;;;-146.67;100.00;57155.34;5100824;28;10008;-79
2023/09/04 05:12:00;;;;;;;;;10.33;9.67;;;;;-146.67;100.00;57155.34;5101674;28;8787;-80
2023/09/04 05:14:26;;;;;;;;;9.25;8.25;;;;;-146.67;100.00;57155.34;5101284;28;8783;-88
2023/09/04 05:16:51;;;;;;;;;8.25;7.75;;;;;-146.67;100.00;57155.34;5112874;28;8806;-82
2023/09/04 05:19:16;;;;;;;;;11.25;8.75;;;;;-146.67;100.00;57155.34;5101101;28;8822;-84
2023/09/04 05:21:42;;;;;;;;;11.50;10.00;;;;;-146.67;100.00;57155.34;5086511;28;8908;-83
2023/09/04 05:24:07;;;;;;;;;12.75;8.50;;;;;-146.67;100.00;57155.34;5104268;28;9560;-85
2023/09/04 05:26:32;;;;;;;;;7.75;7.50;;;;;-146.67;100.00;57155.34;5088607;28;8834;-84
2023/09/04 05:28:58;;;;;;;;;9.75;8.00;;;;;-146.67;100.00;57155.34;5104250;28;8811;-85
2023/09/04 05:31:23;;;;;;;;;11.50;9.75;;;;;-146.67;100.00;57155.34;5104375;28;8888;-81
2023/09/04 05:33:49;;;;;;;;;11.50;7.75;;;;;-146.67;100.00;57155.34;5104263;28;9924;-82
2023/09/04 05:36:14;;;;;;;;;10.00;7.25;;;;;-146.67;100.00;57155.34;5104833;28;8798;-88
2023/09/04 05:38:39;;;;;;;;;12.00;7.75;;;;;-146.67;100.00;57155.34;5105770;28;8775;-85
2023/09/04 05:41:05;;;;;;;;;11.00;7.75;;;;;-146.67;100.00;57155.34;5103585;28;9024;-86
2023/09/04 05:43:30;;;;;;;;;9.75;7.00;;;;;-146.67;100.00;57155.34;5121776;28;8783;-84
2023/09/04 05:45:57;;;;;;;;;8.50;8.00;;;;;-146.67;100.00;57155.34;5105894;28;8787;-81
2023/09/04 05:48:22;;;;;;;;;10.00;8.75;;;;;-146.67;100.00;57155.34;5103898;28;8791;-79
2023/09/04 05:50:48;;;;;;;;;8.75;8.75;;;;;-146.67;100.00;57155.34;5102935;28;9670;-79
2023/09/04 05:53:13;;;;;;;;;10.75;9.50;;;;;-146.67;100.00;57155.34;5118902;28;9828;-79
2023/09/04 05:55:40;;;;;;;;;10.25;9.25;;;;;-146.67;100.00;57155.34;5100154;28;8796;-79
2023/09/04 05:58:06;;;;;;;;;11.00;7.75;;;;;-146.67;100.00;57155.34;5104275;28;8742;-79
2023/09/04 06:00:32;;;;;;;;;7.25;6.50;;;;;-146.67;100.00;57155.34;5107600;28;9824;-79
2023/09/04 06:02:59;;;;;;;;;10.25;8.50;;;;;-146.67;100.00;57155.34;5107649;28;8906;-79
2023/09/04 06:05:25;;;;;;;;;11.50;9.50;;;;;-146.67;100.00;57155.34;5104289;28;8708;-79
2023/09/04 06:07:50;;;;;;;;;11.00;9.50;;;;;-146.67;100.00;57155.34;5103520;28;9688;-79
2023/09/04 06:10:16;;;;;;;;;8.50;8.50;;;;;-146.67;100.00;57155.34;5103304;28;9912;-75
2023/09/04 06:12:42;;;;;;;;;8.25;8.25;;;;;-146.67;100.00;57155.34;5103939;28;10220;-75
2023/09/04 06:15:09;;;;;;;;;12.00;10.25;;;;;-146.67;100.00;57155.34;5104647;28;9721;-74
2023/09/04 06:17:40;;;;;;;;;8.25;6.75;;;;;-146.67;100.00;57155.34;5105049;28;8941;-75
2023/09/04 06:20:06;;;;;;;;;11.75;10.75;;;;;-146.67;100.00;57155.34;5107034;28;9776;-75
2023/09/04 06:22:31;;;;;;;;;12.25;11.00;;;;;-146.67;100.00;57155.34;5101810;28;10086;-75
2023/09/04 06:24:57;;;;;;;;;12.33;10.33;;;;;-146.67;100.00;57155.34;5104532;28;9618;-74
2023/09/04 06:27:22;;;;;;;;;13.25;11.25;;;;;-146.67;100.00;57155.34;5104933;28;8864;-75
2023/09/04 06:29:48;;;;;;;;;13.75;12.25;;;;;-146.67;100.00;57155.34;5085691;28;8798;-76
2023/09/04 06:32:14;;;;;;;;;10.00;10.00;;;;;-146.67;100.00;57155.34;5104839;28;8811;-76
2023/09/04 06:34:40;;;;;;;;;10.75;9.75;;;;;-146.67;100.00;57155.34;5102614;28;8746;-82
2023/09/04 06:37:05;;;;;;;;;13.00;13.00;;;;;-146.67;100.00;57155.34;5101694;28;9750;-78
2023/09/04 06:39:31;;;;;;;;;14.33;12.00;;;;;-146.67;100.00;57155.34;5103156;28;8807;-77
2023/09/04 06:41:56;;;;;;;;;9.75;8.25;;;;;-146.67;100.00;57155.34;5123316;28;8785;-76
2023/09/04 06:44:21;;;;;;;;;9.75;9.75;;;;;-146.67;100.00;57155.34;5106792;28;8807;-76
2023/09/04 06:46:47;;;;;;;;;11.25;8.50;;;;;-146.67;100.00;57155.34;5105609;28;8883;-76
2023/09/04 06:49:13;;;;;;;;;10.25;10.25;;;;;-146.67;100.00;57155.34;5103306;28;9400;-76
2023/09/04 06:51:39;;;;;;;;;14.50;9.25;;;;;-146.67;100.00;57155.34;5117869;28;10018;-78
2023/09/04 06:54:04;;;;;;;;;10.00;9.00;;;;;-146.67;100.00;57155.34;5104104;28;9552;-77
2023/09/04 06:56:30;;;;;;;;;8.33;8.33;;;;;-146.67;100.00;57155.34;5104023;28;8786;-82
2023/09/04 06:58:56;;;;;;;;;9.33;8.67;;;;;-146.67;100.00;57155.34;5105552;28;8803;-79
2023/09/04 07:01:21;;;;;;;;;13.00;9.33;;;;;-146.67;100.00;57155.34;5104085;28;8818;-83
2023/09/04 07:03:47;;;;;;;;;13.00;9.67;;;;;-146.67;100.00;57155.34;5108763;28;8866;-83
2023/09/04 07:06:13;;;;;;;;;8.33;7.33;;;;;-146.67;100.00;57155.34;5105690;28;8888;-82
2023/09/04 07:08:38;;;;;;;;;10.33;9.33;;;;;-146.67;100.00;57155.34;5118288;28;9282;-82
2023/09/04 07:11:04;;;;;;;;;9.00;8.67;;;;;-146.67;100.00;57155.34;5085230;28;10083;-75
2023/09/04 07:13:29;;;;;;;;;15.00;9.00;;;;;-146.67;100.00;57155.34;5103843;28;8823;-78
2023/09/04 07:15:54;;;;;;;;;9.67;8.67;;;;;-146.67;100.00;57155.34;5104190;28;8791;-79
2023/09/04 07:18:20;;;;;;;;;9.67;8.67;;;;;-146.67;100.00;57155.34;5103787;28;8787;-79
2023/09/04 07:20:45;;;;;;;;;50.00;39.75;;;;;-146.67;100.00;57155.34;5102123;28;8799;-78
2023/09/04 07:23:11;;;;;;;;;16.67;16.67;;;;;-146.67;100.00;57155.34;5103295;28;8885;-79
2023/09/04 07:25:36;;;;;;;;;9.00;8.33;;;;;-146.67;100.00;57155.34;5103694;28;8795;-78
2023/09/04 07:28:02;;;;;;;;;11.33;9.33;;;;;-146.67;100.00;57155.34;5101967;28;8820;-79
2023/09/04 07:30:27;;;;;;;;;9.33;7.67;;;;;-146.67;100.00;57155.34;5101749;28;9953;-79
2023/09/04 07:32:53;;;;;;;;;8.33;8.00;;;;;-146.67;100.00;57155.34;5102374;28;8813;-81
2023/09/04 07:35:18;;;;;;;;;7.00;7.00;;;;;-146.67;100.00;57155.34;5104669;28;8840;-77
2023/09/04 07:37:45;;;;;;;;;11.67;7.00;;;;;-146.67;100.00;57155.34;5105005;28;8854;-78
2023/09/04 07:40:10;;;;;;;;;8.33;7.00;;;;;-146.67;100.00;57155.34;5101873;28;8775;-78
2023/09/04 07:42:36;;;;;;;;;8.00;7.33;;;;;-146.67;100.00;57155.34;5102392;28;9155;-79
2023/09/04 07:45:02;;;;;;;;;8.00;7.00;;;;;-146.67;100.00;57155.34;5097474;28;8800;-78
2023/09/04 07:47:27;;;;;;;;;10.33;9.33;;;;;-146.67;100.00;57155.34;5102837;28;8921;-77
2023/09/04 07:49:53;;;;;;;;;9.00;8.00;;;;;-146.67;100.00;57155.34;5102244;28;8804;-77
2023/09/04 07:52:20;;;;;;;;;10.33;7.33;;;;;-146.67;100.00;57155.34;5110017;28;9688;-78
2023/09/04 07:54:48;;;;;;;;;8.33;7.33;;;;;-146.67;100.00;57155.34;5102974;28;8800;-78
2023/09/04 07:57:14;;;;;;;;;7.00;7.00;;;;;-146.67;100.00;57155.34;5101316;28;9152;-78
2023/09/04 07:59:40;;;;;;;;;7.00;6.67;;;;;-146.67;100.00;57155.34;5111545;28;10040;-77
2023/09/04 08:02:06;;;;;;;;;7.67;6.00;;;;;-146.67;100.00;57155.34;5102428;28;8887;-77
2023/09/04 08:04:31;;;;;;;;;8.67;6.00;;;;;-146.67;100.00;57155.34;5112293;28;8775;-77
2023/09/04 08:06:56;;;;;;;;;5.67;5.67;;;;;-146.67;100.00;57155.34;5103314;28;9337;-78
2023/09/04 08:09:22;;;;;;;;;9.33;9.00;;;;;-146.67;100.00;57155.34;5090187;28;8845;-77
2023/09/04 08:11:48;;;;;;;;;7.67;6.67;;;;;-146.67;100.00;57155.34;5107959;28;8787;-77
2023/09/04 08:14:14;;;;;;;;;10.00;8.67;;;;;-146.67;100.00;57155.34;5102007;28;8810;-77
2023/09/04 08:16:39;;;;;;;;;8.67;7.67;;;;;-146.67;100.00;57155.34;5101871;28;8841;-77
2023/09/04 08:19:04;;;;;;;;;8.33;7.00;;;;;-146.67;100.00;57155.34;5084278;28;9454;-77
2023/09/04 08:21:30;;;;;;;;;7.67;6.33;;;;;-146.67;100.00;57155.34;5100801;28;8811;-78
2023/09/04 08:23:55;;;;;;;;;5.67;5.67;;;;;-146.67;100.00;57155.34;5114797;28;8862;-77
2023/09/04 08:26:21;;;;;;;;;7.00;7.00;;;;;-146.67;100.00;57155.34;5117061;28;8798;-77
2023/09/04 08:28:47;;;;;;;;;6.67;5.00;;;;;-146.67;100.00;57155.34;5084155;28;8820;-77
2023/09/04 08:31:12;;;;;;;;;7.67;6.67;;;;;-146.67;100.00;57155.34;5112803;28;8868;-78
2023/09/04 08:33:38;;;;;;;;;6.67;5.33;;;;;-146.67;100.00;57155.34;5112744;28;8826;-77
2023/09/04 08:36:03;;;;;;;;;7.33;6.67;;;;;-146.67;100.00;57155.34;5102197;28;8833;-77
2023/09/04 08:38:29;;;;;;;;;5.67;5.67;;;;;-146.67;100.00;57155.34;5102456;28;8863;-78
2023/09/04 08:41:03;;;;;;;;;7.67;7.00;;;;;-146.67;100.00;57155.34;5100976;28;8827;-78
2023/09/04 08:43:31;;;;;;;;;9.00;7.00;;;;;-146.67;100.00;57155.34;5101102;28;8787;-78
2023/09/04 08:46:02;;;;;;;;;4.33;2.33;;;;;-146.67;100.00;57155.34;5110742;28;9217;-78
2023/09/04 08:48:30;;;;;;;;;7.00;6.00;;;;;-146.67;100.00;57155.34;5100954;28;10432;-78
2023/09/04 08:50:56;;;;;;;;;5.00;5.00;;;;;-146.67;100.00;57155.34;5097021;28;9421;-78
2023/09/04 08:53:22;;;;;;;;;11.00;7.00;;;;;-146.67;100.00;57155.34;5097350;28;9436;-79
2023/09/04 08:55:49;;;;;;;;;9.00;8.00;;;;;-146.67;100.00;57155.34;5102475;28;8752;-78
2023/09/04 08:58:16;;;;;;;;;8.67;6.00;;;;;-146.67;100.00;57155.34;5103444;28;9961;-77
2023/09/04 09:00:42;;;;;;;;;7.33;6.33;;;;;-146.67;100.00;57155.34;5082389;28;9280;-78
2023/09/04 09:03:08;;;;;;;;;6.67;6.67;;;;;-146.67;100.00;57155.34;5098621;28;9208;-78
2023/09/04 09:05:35;;;;;;;;;6.67;6.67;;;;;-146.67;100.00;57155.34;5101127;28;9440;-78
2023/09/04 09:08:03;;;;;;;;;6.67;6.67;;;;;-146.67;100.00;57155.34;5115354;28;8816;-77
2023/09/04 09:10:29;;;;;;;;;8.33;8.33;;;;;-146.67;100.00;57155.34;5112438;28;9345;-77
2023/09/04 09:12:55;;;;;;;;;7.00;7.00;;;;;-146.67;100.00;57155.34;5101204;28;9405;-78
2023/09/04 09:15:20;;;;;;;;;6.67;6.67;;;;;-146.67;100.00;57155.34;5117725;28;8741;-78
2023/09/04 09:17:50;;;;;;;;;18.25;17.50;;;;;-146.67;100.00;57155.34;5101425;28;9481;-78
2023/09/04 09:20:54;;;;;;;;;9.00;8.00;;;;;-146.67;100.00;57155.34;5110263;28;8721;-78
2023/09/04 09:23:20;;;;;;;;;6.00;6.00;;;;;-146.67;100.00;57155.34;5079786;28;9052;-78
2023/09/04 09:25:54;;;;;;;;;5.67;4.67;;;;;-146.67;100.00;57155.34;5062556;28;9272;-78
2023/09/04 09:28:20;;;;;;;;;8.67;8.00;;;;;-146.67;100.00;57155.34;5051650;28;10296;-78
2023/09/04 09:30:46;;;;;;;;;10.00;7.33;;;;;-146.67;100.00;57155.34;5073765;28;9201;-78
2023/09/04 09:33:12;;;;;;;;;8.33;8.33;;;;;-146.67;100.00;57155.34;5057225;28;9231;-78
2023/09/04 09:35:40;;;;;;;;;7.00;5.67;;;;;-146.67;100.00;57155.34;5042399;28;9349;-77
2023/09/04 09:38:06;;;;;;;;;8.67;7.00;;;;;-146.67;100.00;57155.34;5037694;28;10280;-78
2023/09/04 09:40:31;;;;;;;;;7.00;6.33;;;;;-146.67;100.00;57155.34;5042088;28;9024;-77
2023/09/04 09:42:59;;;;;;;;;9.00;6.00;;;;;-146.67;100.00;57155.34;5040350;28;8862;-78
2023/09/04 09:45:29;;;;;;;;;6.00;6.00;;;;;-146.67;100.00;57155.34;5038710;28;8744;-77
2023/09/04 09:47:54;;;;;;;;;6.00;6.00;;;;;-146.67;100.00;57155.34;5035737;28;9367;-78
2023/09/04 09:50:20;;;;;;;;;7.67;7.33;;;;;-146.67;100.00;57155.34;5044750;28;9312;-78
2023/09/04 09:52:57;;;;;;;;;6.00;5.33;;;;;-146.67;100.00;57155.34;5038215;28;9363;-78
2023/09/04 09:55:24;;;;;;;;;8.33;8.33;;;;;-146.67;100.00;57155.34;5101417;28;11427;-77
2023/09/04 09:57:50;;;;;;;;;9.00;8.00;;;;;-146.67;100.00;57155.34;5105239;28;9562;-78
2023/09/04 10:00:16;;;;;;;;;6.67;6.67;;;;;-146.67;100.00;57155.34;5102646;28;9249;-78
2023/09/04 10:02:41;;;;;;;;;7.33;5.67;;;;;-146.67;100.00;57155.34;5095735;28;8857;-78
2023/09/04 10:05:09;;;;;;;;;7.33;7.00;;;;;-146.67;100.00;57155.34;5099811;28;8791;-78
2023/09/04 10:07:37;;;;;;;;;6.33;6.00;;;;;-146.67;100.00;57155.34;5110427;28;10021;-78
2023/09/04 10:10:06;;;;;;;;;5.33;5.33;;;;;-146.67;100.00;57155.34;5103550;28;9193;-77
2023/09/04 10:12:36;;;;;;;;;7.33;6.67;;;;;-146.67;100.00;57155.34;5087026;28;9157;-78
2023/09/04 10:15:05;;;;;;;;;8.67;5.67;;;;;-146.67;100.00;57155.34;5104100;28;9144;-77
2023/09/04 10:17:36;;;;;;;;;5.67;5.67;;;;;-146.67;100.00;57155.34;5097293;28;10028;-78
2023/09/04 10:20:05;;;;;;;;;6.33;6.33;;;;;-146.67;100.00;57155.34;5103667;28;8973;-78
2023/09/04 10:22:36;;;;;;;;;7.33;6.00;;;;;-146.67;100.00;57155.34;5091077;28;9158;-78
2023/09/04 10:25:21;;;;;;;;;11.00;7.00;;;;;-146.67;100.00;57155.34;5082699;28;8917;-78
2023/09/04 10:27:57;;;;;;;;;7.00;7.00;;;;;-146.67;100.00;57155.34;5090886;28;11172;-78
2023/09/04 10:30:25;;;;;;;;;8.00;5.33;;;;;-146.67;100.00;57155.34;5084190;28;9205;-78
2023/09/04 10:32:54;;;;;;;;;5.67;5.00;;;;;-146.67;100.00;57155.34;5082639;28;9077;-80
2023/09/04 10:35:20;;;;;;;;;5.67;5.67;;;;;-146.67;100.00;57155.34;5082337;28;9133;-80
2023/09/04 10:37:48;;;;;;;;;6.33;5.00;;;;;-146.67;100.00;57155.34;5065902;28;9937;-78
2023/09/04 10:40:15;;;;;;;;;6.00;6.00;;;;;-146.67;100.00;57155.34;5065702;28;8801;-80
2023/09/04 10:42:42;;;;;;;;;6.67;6.67;;;;;-146.67;100.00;57155.34;5100256;28;8994;-80
2023/09/04 10:45:12;;;;;;;;;5.00;5.00;;;;;-146.67;100.00;57155.34;5087502;28;8957;-81
2023/09/04 10:47:50;;;;;;;;;6.33;5.67;;;;;-146.67;100.00;57155.34;5088882;28;9069;-80
2023/09/04 10:50:34;;;;;;;;;7.00;5.00;;;;;-146.67;100.00;57155.34;5087144;28;8823;-80
2023/09/04 10:53:01;;;;;;;;;7.67;6.67;;;;;-146.67;100.00;57155.34;5088245;28;8853;-79
2023/09/04 10:55:27;;;;;;;;;5.33;5.33;;;;;-146.67;100.00;57155.34;5086522;28;8877;-82
2023/09/04 10:57:56;;;;;;;;;5.00;5.00;;;;;-146.67;100.00;57155.34;5081946;28;10051;-81
2023/09/04 11:00:38;;;;;;;;;5.00;5.00;;;;;-146.67;100.00;57155.34;5067034;28;8898;-78
2023/09/04 11:03:15;;;;;;;;;7.33;4.67;;;;;-146.67;100.00;57155.34;5079576;28;8809;-82
2023/09/04 11:06:02;;;;;;;;;7.67;7.67;;;;;-146.67;100.00;57155.34;5078388;28;8830;-82
2023/09/04 11:08:35;;;;;;;;;6.33;5.33;;;;;-146.67;100.00;57155.34;5085766;28;9191;-80
2023/09/04 11:11:03;;;;;;;;;9.67;5.33;;;;;-146.67;100.00;57155.34;5081865;28;8905;-85